Time;durP1;ratioP1;P1;durP2;ratioP2;P2;SDS_P1;SDS_P2;PMS_P1;PMS_P2;Temp;Humidity;BMP_temperature;BMP_pressure;BME280_temperature;BME280_humidity;BME280_pressure;Samples;Min_cycle;Max_cycle;Signal;HPM_P1;HPM_P2
2022/05/17 00:01:49;;;;;;;5.87;5.57;;;15.00;99.90;;;;;;5030864;28;20184;-64
2022/05/17 00:04:14;;;;;;;6.10;5.80;;;15.00;99.90;;;;;;5030235;28;20183;-64
2022/05/17 00:06:40;;;;;;;5.80;5.50;;;14.80;99.90;;;;;;5030491;28;20218;-65
2022/05/17 00:09:06;;;;;;;5.57;5.27;;;14.70;99.90;;;;;;5030361;28;20190;-65
2022/05/17 00:11:31;;;;;;;6.30;5.70;;;14.70;99.90;;;;;;5030714;28;20176;-65
2022/05/17 00:13:57;;;;;;;5.97;5.60;;;14.70;99.90;;;;;;5030300;28;20262;-66
2022/05/17 00:16:24;;;;;;;6.00;5.70;;;14.60;99.90;;;;;;5030469;28;20681;-65
2022/05/17 00:18:50;;;;;;;5.40;5.20;;;14.60;99.90;;;;;;5030557;28;20290;-65
2022/05/17 00:21:15;;;;;;;6.43;6.10;;;14.50;99.90;;;;;;5033223;28;20263;-66
2022/05/17 00:23:42;;;;;;;6.17;5.67;;;14.50;99.90;;;;;;5034138;28;20187;-65
2022/05/17 00:26:08;;;;;;;5.93;5.53;;;14.50;99.90;;;;;;5033587;28;20185;-66
2022/05/17 00:28:34;;;;;;;6.10;5.80;;;14.50;99.90;;;;;;5034122;28;20261;-65
2022/05/17 00:31:00;;;;;;;6.90;6.50;;;14.50;99.90;;;;;;5034260;28;20167;-65
2022/05/17 00:33:27;;;;;;;5.97;5.53;;;14.50;99.90;;;;;;5033775;28;20199;-65
2022/05/17 00:35:53;;;;;;;6.70;6.30;;;14.50;99.90;;;;;;5033380;28;20172;-66
2022/05/17 00:38:19;;;;;;;5.60;5.30;;;14.40;99.90;;;;;;5033370;28;20179;-65
2022/05/17 00:40:45;;;;;;;5.90;5.60;;;14.40;99.90;;;;;;5033809;28;20203;-65
2022/05/17 00:43:14;;;;;;;6.00;5.70;;;14.40;99.90;;;;;;5033542;28;20211;-65
2022/05/17 00:45:46;;;;;;;5.77;5.47;;;14.40;99.90;;;;;;5033762;28;20549;-65
2022/05/17 00:48:12;;;;;;;5.80;5.50;;;14.40;99.90;;;;;;5033312;28;20206;-64
2022/05/17 00:50:46;;;;;;;6.47;6.07;;;14.30;99.90;;;;;;5033588;28;20471;-65
2022/05/17 00:53:30;;;;;;;6.70;6.30;;;14.30;99.90;;;;;;5033678;28;20555;-65
2022/05/17 00:55:58;;;;;;;7.23;6.63;;;14.20;99.90;;;;;;5033145;28;20179;-64
2022/05/17 00:58:27;;;;;;;6.43;6.13;;;14.20;99.90;;;;;;5033682;28;20199;-64
2022/05/17 01:01:09;;;;;;;6.67;6.37;;;14.10;99.90;;;;;;5033218;28;20198;-65
2022/05/17 01:04:00;;;;;;;7.23;6.83;;;14.00;99.90;;;;;;5037348;28;20226;-64
2022/05/17 01:06:30;;;;;;;6.50;6.20;;;13.90;99.90;;;;;;5052974;28;20178;-64
2022/05/17 01:08:55;;;;;;;5.73;5.50;;;13.90;99.90;;;;;;5053224;28;20181;-65
2022/05/17 01:11:21;;;;;;;5.80;5.50;;;13.90;99.90;;;;;;5045837;28;20180;-65
2022/05/17 01:16:32;;;;;;;5.93;5.63;;;13.90;99.90;;;;;;5032917;28;20237;-65
2022/05/17 01:18:58;;;;;;;6.07;5.77;;;14.00;99.90;;;;;;5033585;28;20191;-64
2022/05/17 01:21:24;;;;;;;6.33;5.90;;;14.00;99.90;;;;;;5032837;28;20546;-64
2022/05/17 01:23:49;;;;;;;6.43;6.03;;;14.00;99.90;;;;;;5032859;28;20183;-65
2022/05/17 01:26:20;;;;;;;7.20;6.70;;;14.00;99.90;;;;;;5032429;28;20183;-64
2022/05/17 01:28:46;;;;;;;6.47;6.17;;;14.00;99.90;;;;;;5033114;28;20554;-65
2022/05/17 01:31:12;;;;;;;5.83;5.53;;;14.00;99.90;;;;;;5031760;28;20672;-65
2022/05/17 01:33:39;;;;;;;5.70;5.40;;;14.00;99.90;;;;;;5032912;28;20208;-64
2022/05/17 01:36:08;;;;;;;6.20;5.80;;;14.10;99.90;;;;;;5031760;28;20603;-64
2022/05/17 01:38:35;;;;;;;5.80;5.50;;;14.00;99.90;;;;;;5032655;28;20175;-65
2022/05/17 01:41:01;;;;;;;5.60;5.20;;;14.00;99.90;;;;;;5031373;28;20175;-64
2022/05/17 01:43:27;;;;;;;5.77;5.47;;;13.90;99.90;;;;;;5032304;28;20269;-65
2022/05/17 01:45:53;;;;;;;5.77;5.40;;;13.90;99.90;;;;;;5032589;28;20543;-65
2022/05/17 01:48:19;;;;;;;5.33;5.03;;;13.90;99.90;;;;;;5032444;28;20182;-65
2022/05/17 01:50:45;;;;;;;5.47;5.17;;;13.90;99.90;;;;;;5012878;28;20188;-65
2022/05/17 01:53:11;;;;;;;6.27;5.73;;;13.90;99.90;;;;;;5015682;28;20217;-65
2022/05/17 01:55:37;;;;;;;6.23;5.93;;;13.90;99.90;;;;;;5032522;28;20308;-64
2022/05/17 01:58:03;;;;;;;6.47;6.07;;;13.90;99.90;;;;;;5032053;28;20724;-65
2022/05/17 02:00:28;;;;;;;5.87;5.57;;;13.90;99.90;;;;;;5032338;28;20305;-65
2022/05/17 02:02:54;;;;;;;6.30;5.93;;;13.90;99.90;;;;;;5032234;28;20210;-65
2022/05/17 02:05:22;;;;;;;5.60;5.30;;;13.80;99.90;;;;;;5031577;28;20178;-65
2022/05/17 02:07:51;;;;;;;6.20;5.70;;;13.80;99.90;;;;;;5032150;28;20199;-65
2022/05/17 02:10:18;;;;;;;6.17;5.80;;;13.70;99.90;;;;;;5031841;28;20182;-65
2022/05/17 02:12:44;;;;;;;5.80;5.40;;;13.70;99.90;;;;;;5031771;28;20210;-65
2022/05/17 02:15:11;;;;;;;6.20;5.67;;;13.70;99.90;;;;;;5032162;28;20257;-65
2022/05/17 02:17:38;;;;;;;6.03;5.73;;;13.60;99.90;;;;;;5031001;28;20218;-65
2022/05/17 02:20:06;;;;;;;6.07;5.67;;;13.60;99.90;;;;;;5031913;28;20199;-65
2022/05/17 02:22:31;;;;;;;6.13;5.83;;;13.60;99.90;;;;;;5031836;28;20269;-64
2022/05/17 02:24:57;;;;;;;5.33;5.03;;;13.50;99.90;;;;;;5031656;28;20184;-64
2022/05/17 02:27:23;;;;;;;5.90;5.50;;;13.50;99.90;;;;;;5031833;28;20680;-65
2022/05/17 02:29:48;;;;;;;5.73;5.43;;;13.40;99.90;;;;;;5031866;28;20210;-65
2022/05/17 02:32:14;;;;;;;5.43;5.13;;;13.40;99.90;;;;;;5031278;28;20199;-65
2022/05/17 02:34:41;;;;;;;6.10;5.73;;;13.30;99.90;;;;;;5031435;28;20649;-65
2022/05/17 02:37:07;;;;;;;6.07;5.70;;;13.30;99.90;;;;;;5031559;28;20266;-66
2022/05/17 02:39:34;;;;;;;5.47;5.17;;;13.30;99.90;;;;;;5031609;28;20290;-65
2022/05/17 02:42:00;;;;;;;5.83;5.53;;;13.20;99.90;;;;;;5031230;28;20630;-65
2022/05/17 02:44:25;;;;;;;5.70;5.40;;;13.10;99.90;;;;;;5031473;28;20207;-64
2022/05/17 02:46:51;;;;;;;5.30;5.00;;;13.10;99.90;;;;;;5030908;28;20180;-65
2022/05/17 02:49:16;;;;;;;6.00;5.50;;;13.10;99.90;;;;;;5031523;28;20591;-64
2022/05/17 02:51:42;;;;;;;6.63;6.07;;;13.00;99.90;;;;;;5031328;28;20192;-65
2022/05/17 02:54:10;;;;;;;6.43;5.83;;;13.00;99.90;;;;;;5031497;28;20179;-65
2022/05/17 02:56:36;;;;;;;6.60;6.20;;;13.00;99.90;;;;;;5030997;28;20190;-65
2022/05/17 02:59:03;;;;;;;5.80;5.40;;;13.00;99.90;;;;;;5031401;28;20203;-66
2022/05/17 03:01:28;;;;;;;6.23;5.83;;;13.00;99.90;;;;;;5031201;28;20210;-67
2022/05/17 03:03:54;;;;;;;6.33;6.03;;;12.90;99.90;;;;;;5031693;28;20175;-66
2022/05/17 03:06:19;;;;;;;5.93;5.63;;;12.90;99.90;;;;;;5030726;28;20258;-65
2022/05/17 03:08:45;;;;;;;6.00;5.70;;;12.90;99.90;;;;;;5031468;28;20180;-66
2022/05/17 03:11:11;;;;;;;6.60;6.13;;;12.90;99.90;;;;;;5030947;28;20202;-66
2022/05/17 03:13:36;;;;;;;5.60;5.30;;;12.90;99.90;;;;;;5031650;28;20195;-66
2022/05/17 03:16:03;;;;;;;6.53;6.13;;;12.80;99.90;;;;;;5030917;28;20179;-64
2022/05/17 03:18:28;;;;;;;5.93;5.63;;;12.90;99.90;;;;;;5031213;28;20230;-65
2022/05/17 03:20:54;;;;;;;5.73;5.43;;;12.90;99.90;;;;;;5030975;28;20183;-65
2022/05/17 03:23:20;;;;;;;6.17;5.87;;;12.90;99.90;;;;;;5031373;28;20237;-66
2022/05/17 03:25:46;;;;;;;7.37;6.87;;;12.90;99.90;;;;;;5030741;28;20269;-66
2022/05/17 03:28:13;;;;;;;7.20;6.80;;;12.90;99.90;;;;;;5031116;28;20201;-66
2022/05/17 03:30:41;;;;;;;6.30;5.90;;;12.90;99.90;;;;;;5031193;28;20233;-65
2022/05/17 03:33:08;;;;;;;5.83;5.60;;;13.00;99.90;;;;;;5028790;28;20199;-66
2022/05/17 03:35:34;;;;;;;7.13;6.73;;;13.00;99.90;;;;;;5030157;28;20175;-66
2022/05/17 03:38:01;;;;;;;7.70;7.20;;;13.00;99.90;;;;;;5030826;28;20704;-64
2022/05/17 03:40:26;;;;;;;7.90;7.20;;;13.00;99.90;;;;;;5030961;28;20207;-64
2022/05/17 03:42:52;;;;;;;7.70;7.13;;;13.10;99.90;;;;;;5031606;28;20210;-66
2022/05/17 03:45:17;;;;;;;7.33;6.93;;;13.10;99.90;;;;;;5031189;28;20190;-66
2022/05/17 03:47:43;;;;;;;7.37;6.60;;;13.20;99.90;;;;;;5032849;28;20172;-65
2022/05/17 03:50:10;;;;;;;6.60;6.30;;;13.20;99.90;;;;;;5030409;28;20199;-66
2022/05/17 03:52:36;;;;;;;6.13;5.83;;;13.30;99.90;;;;;;5029846;28;20199;-65
2022/05/17 03:55:04;;;;;;;7.80;7.30;;;13.40;99.90;;;;;;5031966;28;20664;-65
2022/05/17 03:57:30;;;;;;;7.00;6.60;;;13.50;99.90;;;;;;5034297;28;20179;-65
2022/05/17 03:59:56;;;;;;;6.90;6.40;;;13.60;99.90;;;;;;5034477;28;20286;-65
2022/05/17 04:02:23;;;;;;;6.90;6.50;;;13.80;99.90;;;;;;5033959;28;20191;-65
2022/05/17 04:04:55;;;;;;;6.27;5.87;;;14.00;99.90;;;;;;5034243;28;20176;-66
2022/05/17 04:07:22;;;;;;;6.97;6.57;;;14.20;99.90;;;;;;5034184;28;20477;-65
2022/05/17 04:09:48;;;;;;;6.57;5.90;;;14.30;99.90;;;;;;5034432;28;20551;-65
2022/05/17 04:12:14;;;;;;;7.07;6.70;;;14.50;99.90;;;;;;5034349;28;20191;-65
2022/05/17 04:14:40;;;;;;;7.37;6.97;;;14.60;99.90;;;;;;5033814;28;20190;-64
2022/05/17 04:17:06;;;;;;;6.50;6.10;;;14.70;99.90;;;;;;5033974;28;20179;-65
2022/05/17 04:19:31;;;;;;;7.67;7.13;;;14.80;99.90;;;;;;5034101;28;20249;-65
2022/05/17 04:21:58;;;;;;;6.10;5.80;;;14.90;99.90;;;;;;5033846;28;20215;-65
2022/05/17 04:24:26;;;;;;;7.23;6.70;;;15.00;99.90;;;;;;5034296;28;20164;-64
2022/05/17 04:26:52;;;;;;;6.77;6.27;;;15.10;99.90;;;;;;5033669;28;20705;-64
2022/05/17 04:29:17;;;;;;;7.07;6.23;;;15.10;99.90;;;;;;5034230;28;20341;-64
2022/05/17 04:31:43;;;;;;;6.43;6.03;;;15.20;99.90;;;;;;5033709;28;20215;-64
2022/05/17 04:34:09;;;;;;;6.63;6.13;;;15.20;99.90;;;;;;5033461;28;20183;-65
2022/05/17 04:36:35;;;;;;;5.70;5.40;;;15.20;99.90;;;;;;5031952;28;20191;-65
2022/05/17 04:39:02;;;;;;;6.20;5.80;;;15.30;99.90;;;;;;5033437;28;20199;-65
2022/05/17 04:41:28;;;;;;;5.90;5.60;;;15.30;99.90;;;;;;5033752;28;20175;-65
2022/05/17 04:43:53;;;;;;;5.80;5.50;;;15.40;99.90;;;;;;5034046;28;20187;-65
2022/05/17 04:46:19;;;;;;;6.60;6.13;;;15.60;99.90;;;;;;5033412;28;20167;-65
2022/05/17 04:48:45;;;;;;;5.40;5.10;;;15.70;99.90;;;;;;5033544;28;20241;-64
2022/05/17 04:51:12;;;;;;;5.40;5.00;;;15.80;99.90;;;;;;5033195;28;20187;-64
2022/05/17 04:53:39;;;;;;;5.90;5.50;;;15.90;99.90;;;;;;5033513;28;20302;-64
2022/05/17 04:56:06;;;;;;;5.73;5.37;;;16.00;99.90;;;;;;5032912;28;20186;-64
2022/05/17 04:58:33;;;;;;;5.13;4.83;;;16.20;99.90;;;;;;5033439;28;20233;-63
2022/05/17 05:00:59;;;;;;;6.07;5.77;;;16.20;99.90;;;;;;5033114;28;20176;-64
2022/05/17 05:03:25;;;;;;;5.87;5.57;;;16.30;99.90;;;;;;5033455;28;20245;-64
2022/05/17 05:05:50;;;;;;;5.60;5.30;;;16.30;99.90;;;;;;5031312;28;20233;-63
2022/05/17 05:08:16;;;;;;;5.40;5.00;;;16.30;99.90;;;;;;5033549;28;20233;-64
2022/05/17 05:10:44;;;;;;;5.40;4.90;;;16.40;99.90;;;;;;5031627;28;20237;-64
2022/05/17 05:13:20;;;;;;;5.60;5.30;;;16.50;99.90;;;;;;5032936;28;21055;-65
2022/05/17 05:15:46;;;;;;;6.07;5.77;;;16.60;99.90;;;;;;5032698;28;20217;-64
2022/05/17 05:18:13;;;;;;;5.73;5.40;;;16.60;99.90;;;;;;5033131;28;20167;-64
2022/05/17 05:20:39;;;;;;;6.23;5.93;;;16.60;99.90;;;;;;5032701;28;20653;-63
2022/05/17 05:23:05;;;;;;;5.77;5.27;;;16.60;99.90;;;;;;5032929;28;20191;-64
2022/05/17 05:25:31;;;;;;;6.00;5.70;;;16.50;99.90;;;;;;5032767;28;20187;-64
2022/05/17 05:27:57;;;;;;;5.30;5.00;;;16.60;99.90;;;;;;5032885;28;20667;-64
2022/05/17 05:30:23;;;;;;;5.50;5.10;;;16.50;99.90;;;;;;5032616;28;20184;-64
2022/05/17 05:32:48;;;;;;;6.20;5.90;;;16.60;99.90;;;;;;5032803;28;20195;-64
2022/05/17 05:35:20;;;;;;;5.27;4.97;;;16.60;99.90;;;;;;5032399;28;20616;-64
2022/05/17 05:37:46;;;;;;;5.30;5.00;;;16.60;99.90;;;;;;5032733;28;20281;-65
2022/05/17 05:40:12;;;;;;;9.50;5.23;;;16.70;99.90;;;;;;5032156;28;20207;-64
2022/05/17 05:42:39;;;;;;;5.73;5.33;;;16.80;99.90;;;;;;5032584;28;20215;-65
2022/05/17 05:45:06;;;;;;;4.63;4.43;;;16.90;99.90;;;;;;5012890;28;20712;-64
2022/05/17 05:47:31;;;;;;;5.77;5.47;;;17.00;99.90;;;;;;5013018;28;20481;-64
2022/05/17 05:49:57;;;;;;;5.90;5.40;;;17.10;99.90;;;;;;5028813;28;20274;-64
2022/05/17 05:52:23;;;;;;;5.43;5.13;;;17.20;99.90;;;;;;5031060;28;20608;-64
2022/05/17 05:54:49;;;;;;;5.53;5.23;;;17.30;99.90;;;;;;5031964;28;20211;-64
2022/05/17 05:57:14;;;;;;;5.73;5.33;;;17.40;99.90;;;;;;5032109;28;20234;-64
2022/05/17 05:59:41;;;;;;;4.73;4.43;;;17.40;99.90;;;;;;5032153;28;20211;-64
2022/05/17 06:02:08;;;;;;;5.63;5.00;;;17.50;99.90;;;;;;5032077;28;20210;-64
2022/05/17 06:04:34;;;;;;;6.13;5.17;;;17.60;99.90;;;;;;5031609;28;20192;-64
2022/05/17 06:06:59;;;;;;;5.40;5.10;;;17.60;99.90;;;;;;5031700;28;20249;-65
2022/05/17 06:09:26;;;;;;;4.73;4.33;;;17.80;99.90;;;;;;5032154;28;20594;-64
2022/05/17 06:11:52;;;;;;;4.43;4.23;;;18.10;99.90;;;;;;5031751;28;20204;-65
2022/05/17 06:14:20;;;;;;;4.80;4.47;;;18.30;99.90;;;;;;5032237;28;20633;-64
2022/05/17 06:16:46;;;;;;;5.30;4.80;;;18.70;99.90;;;;;;5029061;28;20183;-64
2022/05/17 06:19:12;;;;;;;4.63;4.33;;;19.00;99.90;;;;;;5031596;28;20294;-65
2022/05/17 06:21:38;;;;;;;5.50;5.20;;;19.40;99.90;;;;;;5031856;28;20608;-64
2022/05/17 06:24:04;;;;;;;4.83;4.63;;;19.70;99.90;;;;;;5032175;28;20168;-64
2022/05/17 06:26:30;;;;;;;5.38;5.07;;;19.80;99.90;;;;;;5031443;28;20270;-63
2022/05/17 06:28:56;;;;;;;5.47;5.07;;;19.90;99.90;;;;;;5032014;28;20329;-63
2022/05/17 06:31:22;;;;;;;7.07;6.68;;;20.10;99.90;;;;;;5030496;28;20175;-64
2022/05/17 06:33:48;;;;;;;5.95;5.43;;;20.30;99.90;;;;;;5031598;28;20207;-64
2022/05/17 06:36:13;;;;;;;5.33;5.03;;;20.40;99.90;;;;;;5031053;28;20716;-67
2022/05/17 06:38:39;;;;;;;5.67;5.27;;;20.60;99.90;;;;;;5031331;28;20183;-64
2022/05/17 06:41:04;;;;;;;4.57;4.38;;;20.60;99.90;;;;;;5031350;28;20191;-64
2022/05/17 06:43:34;;;;;;;5.53;5.23;;;20.40;99.90;;;;;;5031408;28;20360;-64
2022/05/17 06:46:01;;;;;;;5.33;4.90;;;20.20;99.90;;;;;;5031031;28;20736;-65
2022/05/17 06:48:30;;;;;;;5.33;5.03;;;20.20;99.90;;;;;;5031148;28;20175;-66
2022/05/17 06:51:07;;;;;;;5.73;5.33;;;20.20;99.90;;;;;;5029317;28;20241;-64
2022/05/17 06:53:33;;;;;;;6.53;6.13;;;20.30;99.90;;;;;;5031502;28;20206;-64
2022/05/17 06:55:59;;;;;;;5.67;5.27;;;20.30;99.90;;;;;;5029445;28;20540;-64
2022/05/17 06:58:28;;;;;;;5.40;5.00;;;20.40;99.90;;;;;;5030916;28;20190;-63
2022/05/17 07:00:54;;;;;;;5.80;5.30;;;20.60;99.90;;;;;;5031508;28;20207;-65
2022/05/17 07:03:20;;;;;;;4.90;4.67;;;20.70;99.90;;;;;;5031152;28;20547;-65
2022/05/17 07:05:46;;;;;;;5.50;5.10;;;21.10;99.90;;;;;;5031147;28;20230;-65
2022/05/17 07:08:11;;;;;;;4.40;4.10;;;21.50;99.90;;;;;;5031145;28;20176;-64
2022/05/17 07:13:21;;;;;;;4.45;4.18;;;22.20;99.90;;;;;;5031199;28;20730;-63
2022/05/17 07:15:48;;;;;;;4.97;4.53;;;22.40;99.90;;;;;;5030947;28;20179;-64
2022/05/17 07:18:17;;;;;;;4.47;4.28;;;22.50;99.90;;;;;;5031030;28;20382;-63
2022/05/17 07:20:46;;;;;;;6.18;4.47;;;22.30;99.90;;;;;;5031138;28;20619;-63
2022/05/17 07:23:13;;;;;;;4.70;4.40;;;22.10;99.90;;;;;;5030919;28;20206;-65
2022/05/17 07:25:43;;;;;;;4.93;4.55;;;22.00;99.90;;;;;;5030720;28;20183;-65
2022/05/17 07:28:11;;;;;;;4.63;4.32;;;21.80;99.90;;;;;;5030524;28;20225;-64
2022/05/17 07:30:36;;;;;;;4.72;4.32;;;21.80;99.90;;;;;;5033451;28;20266;-63
2022/05/17 07:33:02;;;;;;;4.57;4.30;;;22.10;99.90;;;;;;5034608;28;20284;-64
2022/05/17 07:35:28;;;;;;;4.93;4.63;;;22.20;99.90;;;;;;5034844;28;20196;-64
2022/05/17 07:37:54;;;;;;;4.25;3.88;;;22.40;99.90;;;;;;5034727;28;20187;-64
2022/05/17 07:40:20;;;;;;;4.40;4.20;;;22.70;99.90;;;;;;5034906;28;20207;-65
2022/05/17 07:42:46;;;;;;;4.38;4.18;;;23.00;99.90;;;;;;5034295;28;20294;-65
2022/05/17 07:45:14;;;;;;;4.22;3.92;;;23.50;99.90;;;;;;5034479;28;20172;-65
2022/05/17 07:47:39;;;;;;;4.50;4.10;;;23.80;99.90;;;;;;5034509;28;20262;-65
2022/05/17 07:50:06;;;;;;;4.82;4.53;;;23.90;99.90;;;;;;5034731;28;20357;-64
2022/05/17 07:52:32;;;;;;;5.45;5.05;;;24.10;99.90;;;;;;5034498;28;20676;-65
2022/05/17 07:54:59;;;;;;;4.70;4.40;;;24.30;99.90;;;;;;5034245;28;20211;-65
2022/05/17 07:57:25;;;;;;;6.65;6.30;;;24.60;99.90;;;;;;5034533;28;20180;-63
2022/05/17 07:59:51;;;;;;;5.50;5.13;;;24.90;99.90;;;;;;5034336;28;20286;-64
2022/05/17 08:02:17;;;;;;;4.85;4.55;;;25.20;99.90;;;;;;5034134;28;20274;-64
2022/05/17 08:04:43;;;;;;;5.13;4.82;;;25.20;99.90;;;;;;5034058;28;20178;-63
2022/05/17 08:07:08;;;;;;;4.65;4.35;;;25.10;99.90;;;;;;5034315;28;20199;-64
2022/05/17 08:09:35;;;;;;;5.18;4.85;;;24.80;99.90;;;;;;5034313;28;20250;-64
2022/05/17 08:12:02;;;;;;;5.63;5.22;;;24.70;99.90;;;;;;5034098;28;20196;-65
2022/05/17 08:14:28;;;;;;;5.10;4.80;;;24.70;99.90;;;;;;5033879;28;20187;-67
2022/05/17 08:16:53;;;;;;;6.57;6.18;;;24.60;99.90;;;;;;5034192;28;20182;-64
2022/05/17 08:19:19;;;;;;;8.38;7.88;;;24.60;99.90;;;;;;5033944;28;20246;-65
2022/05/17 08:21:45;;;;;;;7.22;6.93;;;24.90;99.90;;;;;;5034043;28;20237;-64
2022/05/17 08:24:10;;;;;;;4.45;4.15;;;25.20;99.90;;;;;;5033798;28;20180;-66
2022/05/17 08:29:20;;;;;;;4.72;4.28;;;26.00;99.90;;;;;;5033992;28;20237;-65
2022/05/17 08:34:29;;;;;;;4.82;4.40;;;26.30;99.90;;;;;;5033411;28;20195;-65
2022/05/17 08:36:55;;;;;;;4.68;4.38;;;26.20;99.90;;;;;;5033982;28;20543;-64
2022/05/17 08:39:21;;;;;;;4.57;4.20;;;26.10;99.90;;;;;;5033585;28;20245;-65
2022/05/17 08:41:53;;;;;;;5.22;4.78;;;26.10;99.90;;;;;;5033132;28;20183;-65
2022/05/17 08:44:26;;;;;;;6.45;4.93;;;26.20;99.90;;;;;;5033673;28;20229;-64
2022/05/17 08:47:05;;;;;;;5.15;4.57;;;26.30;99.90;;;;;;5033381;28;20222;-64
2022/05/17 08:49:46;;;;;;;5.78;5.28;;;26.20;99.90;;;;;;5033606;28;20653;-65
2022/05/17 08:52:17;;;;;;;5.85;5.50;;;26.00;99.90;;;;;;5033564;28;20567;-65
2022/05/17 08:54:57;;;;;;;6.18;5.68;;;26.20;99.90;;;;;;5032921;28;20637;-65
2022/05/17 08:57:38;;;;;;;6.22;5.07;;;26.30;99.90;;;;;;5033617;28;20625;-65
2022/05/17 09:00:09;;;;;;;4.65;4.35;;;26.40;99.90;;;;;;5014386;28;20297;-65
2022/05/17 09:02:43;;;;;;;4.35;4.05;;;26.90;99.90;;;;;;5020758;28;20194;-64
2022/05/17 09:05:14;;;;;;;5.03;4.60;;;27.20;99.90;;;;;;5033063;28;20591;-64
2022/05/17 09:08:01;;;;;;;5.32;4.88;;;27.50;99.90;;;;;;5033427;28;20254;-64
2022/05/17 09:10:32;;;;;;;4.80;4.50;;;27.60;99.90;;;;;;5033395;28;20258;-65
2022/05/17 09:13:13;;;;;;;4.55;4.15;;;27.80;99.90;;;;;;5033160;28;20195;-65
2022/05/17 09:15:40;;;;;;;4.88;4.40;;;28.00;99.90;;;;;;5033048;28;20171;-65
2022/05/17 09:18:13;;;;;;;5.00;4.53;;;28.00;99.90;;;;;;5033073;28;20221;-64
2022/05/17 09:20:39;;;;;;;4.70;4.30;;;28.00;99.90;;;;;;5033314;28;20222;-64
2022/05/17 09:23:06;;;;;;;5.40;4.55;;;28.10;99.90;;;;;;5032765;28;20676;-64
2022/05/17 09:25:56;;;;;;;5.28;4.35;;;28.00;99.90;;;;;;5032789;28;20183;-65
2022/05/17 09:28:27;;;;;;;5.32;4.25;;;27.90;99.90;;;;;;5033062;28;20175;-65
2022/05/17 09:31:18;;;;;;;4.68;4.30;;;27.90;99.90;;;;;;5032742;28;20178;-64
2022/05/17 09:33:44;;;;;;;3.83;3.60;;;27.70;99.90;;;;;;5032916;28;20211;-64
2022/05/17 09:36:22;;;;;;;4.10;3.83;;;27.50;99.90;;;;;;5031059;28;20182;-64
2022/05/17 09:38:51;;;;;;;4.03;3.55;;;27.40;99.90;;;;;;5032653;28;20267;-65
2022/05/17 09:41:21;;;;;;;3.63;3.38;;;27.40;99.90;;;;;;5032715;28;20199;-64
2022/05/17 09:44:01;;;;;;;4.00;3.80;;;27.60;99.90;;;;;;5056802;22;20609;-67
2022/05/17 09:46:36;;;;;;;4.75;4.45;;;27.50;99.90;;;;;;5032535;28;20195;-67
2022/05/17 09:52:33;;;;;;;3.53;3.35;;;27.60;99.90;;;;;;5031764;28;20246;-67
2022/05/17 09:55:06;;;;;;;3.92;3.63;;;27.30;99.90;;;;;;5029083;28;20175;-67
2022/05/17 09:57:32;;;;;;;5.10;3.30;;;27.20;99.90;;;;;;5012932;28;20169;-67
2022/05/17 10:00:23;;;;;;;3.63;3.40;;;27.20;99.90;;;;;;5026873;28;20199;-67
2022/05/17 10:03:00;;;;;;;4.05;3.80;;;27.30;99.90;;;;;;5052283;28;20190;-67
2022/05/17 10:05:38;;;;;;;3.58;3.38;;;27.50;99.90;;;;;;5052052;28;20178;-67
2022/05/17 10:08:14;;;;;;;3.70;3.50;;;27.50;99.90;;;;;;5052142;28;20167;-67
2022/05/17 10:10:45;;;;;;;3.88;3.60;;;27.60;99.90;;;;;;5011070;28;20266;-67
2022/05/17 10:13:20;;;;;;;3.00;2.90;;;27.70;99.90;;;;;;5012654;28;20227;-68
2022/05/17 10:15:50;;;;;;;3.15;3.00;;;27.80;99.90;;;;;;5031711;28;20175;-67
2022/05/17 10:18:30;;;;;;;4.07;3.40;;;28.00;99.90;;;;;;5031937;28;20171;-67
2022/05/17 10:21:06;;;;;;;3.38;3.17;;;28.20;99.90;;;;;;5031759;28;20593;-67
2022/05/17 10:24:00;;;;;;;3.17;3.05;;;28.10;99.90;;;;;;5031628;28;20187;-67
2022/05/17 10:26:33;;;;;;;3.22;3.10;;;28.00;99.90;;;;;;5031835;28;20456;-67
2022/05/17 10:28:58;;;;;;;4.15;3.92;;;28.00;99.90;;;;;;5030294;28;20218;-67
2022/05/17 10:31:39;;;;;;;3.95;3.75;;;28.00;99.90;;;;;;5031901;28;20187;-67
2022/05/17 10:34:29;;;;;;;4.60;4.25;;;28.10;99.90;;;;;;5031449;28;20548;-69
2022/05/17 10:37:00;;;;;;;3.65;3.40;;;28.20;99.90;;;;;;5031758;28;20171;-67
2022/05/17 10:39:38;;;;;;;3.83;3.53;;;28.40;99.90;;;;;;5031654;28;20206;-67
2022/05/17 10:42:04;;;;;;;3.40;3.10;;;28.50;99.90;;;;;;5031599;28;20258;-67
2022/05/17 10:44:58;;;;;;;3.90;3.42;;;28.40;99.90;;;;;;5031209;28;20187;-67
2022/05/17 10:47:48;;;;;;;3.42;3.22;;;28.30;99.90;;;;;;5029787;28;20322;-67
2022/05/17 10:50:21;;;;;;;3.15;2.95;;;28.20;99.90;;;;;;5031444;28;20189;-67
2022/05/17 10:52:59;;;;;;;3.75;3.55;;;28.20;99.90;;;;;;5031560;28;20572;-67
2022/05/17 10:56:03;;;;;;;3.45;3.25;;;28.20;99.90;;;;;;5031378;28;20185;-67
2022/05/17 10:58:48;;;;;;;4.93;3.55;;;28.60;99.90;;;;;;5031361;28;20183;-67
2022/05/17 11:01:26;;;;;;;3.40;3.20;;;28.80;99.90;;;;;;5031196;28;20783;-67
2022/05/17 11:04:15;;;;;;;3.08;2.88;;;29.00;99.90;;;;;;5031295;28;20779;-67
2022/05/17 11:07:06;;;;;;;3.20;3.00;;;29.10;99.90;;;;;;5031182;28;20569;-67
2022/05/17 11:09:38;;;;;;;4.50;4.03;;;29.10;99.90;;;;;;5031371;28;20270;-67
2022/05/17 11:12:09;;;;;;;3.40;2.92;;;29.00;99.90;;;;;;5031305;28;20190;-67
2022/05/17 11:14:50;;;;;;;3.58;3.38;;;29.00;99.90;;;;;;5030958;28;20190;-67
2022/05/17 11:17:28;;;;;;;3.35;3.20;;;28.70;99.90;;;;;;5029931;28;20546;-67
2022/05/17 11:20:25;;;;;;;3.65;3.45;;;28.70;99.90;;;;;;5029697;28;20199;-67
2022/05/17 11:23:10;;;;;;;3.70;3.38;;;28.90;99.90;;;;;;5029742;28;20207;-67
2022/05/17 11:26:04;;;;;;;3.30;3.10;;;28.80;99.90;;;;;;5030937;28;20199;-67
2022/05/17 11:28:35;;;;;;;3.63;3.00;;;28.70;99.90;;;;;;5031332;28;20254;-67
2022/05/17 11:31:16;;;;;;;3.25;3.05;;;28.50;99.90;;;;;;5029389;28;20179;-67
2022/05/17 11:33:42;;;;;;;3.60;3.38;;;28.40;99.90;;;;;;5031144;28;20187;-67
2022/05/17 11:36:29;;;;;;;3.53;3.42;;;28.20;99.90;;;;;;5028998;28;20187;-67
2022/05/17 11:38:55;;;;;;;3.53;3.33;;;28.20;99.90;;;;;;5029579;28;20659;-67
2022/05/17 11:41:22;;;;;;;4.07;3.88;;;28.00;99.90;;;;;;5029926;28;20187;-67
2022/05/17 11:44:03;;;;;;;4.63;4.38;;;27.80;99.90;;;;;;5029909;28;20218;-67
2022/05/17 11:46:28;;;;;;;3.40;3.20;;;27.60;99.90;;;;;;5030433;28;20215;-66
2022/05/17 11:49:00;;;;;;;2.90;2.70;;;27.40;99.90;;;;;;5030559;28;20215;-67
2022/05/17 11:51:33;;;;;;;3.00;2.90;;;27.40;99.90;;;;;;5031305;28;20442;-67
2022/05/17 11:54:00;;;;;;;3.30;3.10;;;27.40;99.90;;;;;;5030592;28;20203;-67
2022/05/17 11:56:25;;;;;;;3.10;2.90;;;27.40;99.90;;;;;;5030766;28;20164;-66
2022/05/17 11:58:54;;;;;;;3.20;3.03;;;27.30;99.90;;;;;;5030632;28;20655;-67
2022/05/17 12:01:29;;;;;;;2.95;2.85;;;27.40;99.90;;;;;;5030661;28;20774;-67
2022/05/17 12:04:02;;;;;;;2.95;2.85;;;27.30;99.90;;;;;;5030430;28;20199;-67
2022/05/17 12:06:48;;;;;;;2.80;2.70;;;27.40;99.90;;;;;;5028967;28;20186;-67
2022/05/17 12:09:22;;;;;;;3.20;3.00;;;27.70;99.90;;;;;;5020545;28;20196;-66
2022/05/17 12:12:11;;;;;;;3.80;3.60;;;27.80;99.90;;;;;;5030304;28;20672;-66
2022/05/17 12:15:01;;;;;;;2.92;2.83;;;28.10;99.90;;;;;;5026378;28;20203;-67
2022/05/17 12:17:36;;;;;;;3.55;3.35;;;28.50;99.90;;;;;;5034080;28;20203;-67
2022/05/17 12:20:41;;;;;;;2.78;2.67;;;29.20;99.90;;;;;;5034363;28;20634;-66
2022/05/17 12:23:28;;;;;;;2.70;2.55;;;30.20;99.90;;;;;;4998715;28;20212;-67
2022/05/17 12:26:08;;;;;;;2.58;2.47;;;30.50;99.90;;;;;;5018154;28;20175;-67
2022/05/17 12:28:38;;;;;;;2.88;2.65;;;30.50;99.90;;;;;;5034337;28;20217;-66
2022/05/17 12:31:09;;;;;;;2.67;2.47;;;30.60;99.90;;;;;;5033842;28;20602;-67
2022/05/17 12:33:43;;;;;;;2.58;2.38;;;30.80;99.90;;;;;;5034214;28;20277;-67
2022/05/17 12:36:16;;;;;;;2.55;2.45;;;30.80;99.90;;;;;;5033496;28;20186;-67
2022/05/17 12:44:22;;;;;;;2.90;2.80;;;30.60;99.90;;;;;;5033873;28;20179;-67
2022/05/17 12:46:52;;;;;;;2.70;2.50;;;30.50;99.90;;;;;;5032936;28;20258;-68
2022/05/17 12:49:22;;;;;;;3.38;3.17;;;30.50;99.90;;;;;;5033813;28;20179;-67
2022/05/17 12:51:54;;;;;;;3.45;3.15;;;30.20;99.90;;;;;;5033960;28;20713;-67
2022/05/17 12:54:26;;;;;;;2.90;2.80;;;30.10;99.90;;;;;;5033549;28;20540;-67
2022/05/17 12:56:51;;;;;;;3.00;2.80;;;30.30;99.90;;;;;;5021081;28;20183;-67
2022/05/17 12:59:32;;;;;;;2.95;2.75;;;30.40;99.90;;;;;;5033692;28;20199;-67
2022/05/17 13:02:00;;;;;;;3.00;2.80;;;30.50;99.90;;;;;;5032209;28;20596;-67
2022/05/17 13:04:32;;;;;;;2.70;2.50;;;30.10;99.90;;;;;;5033495;28;20587;-67
2022/05/17 13:07:13;;;;;;;3.40;3.20;;;30.50;99.90;;;;;;5033062;28;20241;-67
2022/05/17 13:10:02;;;;;;;2.65;2.55;;;30.90;99.90;;;;;;5033739;28;20175;-67
2022/05/17 13:12:31;;;;;;;3.00;2.90;;;30.90;99.90;;;;;;5033405;28;20200;-67
2022/05/17 13:14:58;;;;;;;3.08;2.90;;;30.50;99.90;;;;;;5033108;28;20579;-68
2022/05/17 13:17:28;;;;;;;2.60;2.50;;;30.40;99.90;;;;;;5033107;28;20515;-67
2022/05/17 13:19:59;;;;;;;2.58;2.47;;;30.30;99.90;;;;;;5033174;28;20223;-67
2022/05/17 13:22:26;;;;;;;2.78;2.58;;;30.40;99.90;;;;;;5033451;28;20211;-67